METAR Data
IDs: Format: Raw Decoded Include TAF

Data at: 2029 UTC 25 Oct 2021

EDDF 252020Z 20002KT 9999 SCT039 05/05 Q1020 NOSIG